Time;durP1;ratioP1;P1;durP2;ratioP2;P2;SDS_P1;SDS_P2;PMS_P1;PMS_P2;Temp;Humidity;BMP_temperature;BMP_pressure;BME280_temperature;BME280_humidity;BME280_pressure;Samples;Min_cycle;Max_cycle;Signal;HPM_P1;HPM_P2
2021/07/11 00:00:12;;;;;;;10.10;6.35;;;17.10;99.90;;;17.35;100.00;100484.69;3538860;39;101728;-82
2021/07/11 00:02:41;;;;;;;9.82;5.68;;;17.10;99.90;;;17.34;100.00;100488.41;3535224;39;101122;-87
2021/07/11 00:05:13;;;;;;;8.65;5.88;;;17.10;99.90;;;17.32;100.00;100486.94;3526905;39;101045;-82
2021/07/11 00:07:40;;;;;;;5.65;5.13;;;17.00;99.90;;;17.28;100.00;100480.28;3536547;39;102400;-83
2021/07/11 00:10:10;;;;;;;5.70;5.13;;;17.00;99.90;;;17.26;100.00;100471.50;3530700;39;100267;-83
2021/07/11 00:12:38;;;;;;;6.88;5.28;;;17.00;99.90;;;17.28;100.00;100475.69;3533029;39;101477;-85
2021/07/11 00:15:09;;;;;;;7.18;5.38;;;17.00;99.90;;;17.35;100.00;100465.75;3592317;22;102422;-85
2021/07/11 00:17:37;;;;;;;5.70;5.10;;;16.90;99.90;;;17.24;100.00;100467.13;3528146;39;101337;-82
2021/07/11 00:20:09;;;;;;;6.30;5.35;;;17.90;99.90;;;17.23;100.00;100473.56;3554606;39;99925;-83
2021/07/11 00:22:36;;;;;;;7.13;5.22;;;16.90;99.90;;;17.19;100.00;100466.88;3553519;39;100711;-82
2021/07/11 00:25:04;;;;;;;5.40;4.90;;;16.90;99.90;;;17.21;100.00;100466.69;3556226;39;100900;-83
2021/07/11 00:27:31;;;;;;;7.00;6.13;;;16.90;99.90;;;17.23;100.00;100464.63;3556334;39;100563;-82
2021/07/11 00:29:58;;;;;;;7.65;5.18;;;16.90;99.90;;;17.24;100.00;100458.19;3538539;39;100606;-85
2021/07/11 00:32:25;;;;;;;6.97;5.80;;;17.20;99.90;;;17.20;100.00;100460.44;3547183;39;101201;-82
2021/07/11 00:34:52;;;;;;;8.00;5.70;;;18.00;99.90;;;17.15;100.00;100462.06;3551256;39;103333;-82
2021/07/11 00:37:22;;;;;;;7.22;5.38;;;16.80;99.90;;;17.16;100.00;100464.59;3557112;39;100250;-86
2021/07/11 00:39:49;;;;;;;8.50;6.05;;;16.80;99.90;;;17.15;100.00;100454.81;3548438;39;99994;-82
2021/07/11 00:42:18;;;;;;;7.47;5.38;;;16.80;99.90;;;17.12;100.00;100455.19;3539614;39;102815;-84
2021/07/11 00:44:46;;;;;;;6.40;5.32;;;16.80;99.90;;;17.15;100.00;100462.06;3549531;39;103529;-83
2021/07/11 00:47:14;;;;;;;8.55;5.43;;;16.80;99.90;;;17.01;100.00;100457.59;3552834;39;102925;-86
2021/07/11 00:49:43;;;;;;;8.10;4.50;;;17.70;99.90;;;16.92;100.00;100454.22;3547503;39;100086;-84
2021/07/11 00:52:12;;;;;;;6.78;5.97;;;16.70;99.90;;;16.92;100.00;100456.91;3541788;39;101170;-85
2021/07/11 00:54:40;;;;;;;6.53;5.88;;;16.70;99.90;;;16.88;100.00;100459.16;3538943;39;100552;-82
2021/07/11 00:57:11;;;;;;;7.10;5.55;;;16.90;99.90;;;16.95;100.00;100467.31;3539180;39;102139;-84
2021/07/11 00:59:41;;;;;;;8.05;6.22;;;16.70;99.90;;;16.88;100.00;100475.38;3553240;22;104236;-83
2021/07/11 01:02:12;;;;;;;6.28;5.60;;;16.60;99.90;;;16.83;100.00;100469.69;3609619;22;110020;-84
2021/07/11 01:04:52;;;;;;;8.18;5.53;;;16.60;99.90;;;16.75;100.00;100472.53;3474642;40;100701;-86
2021/07/11 01:07:29;;;;;;;8.57;5.65;;;16.60;99.90;;;16.71;100.00;100481.22;3474533;40;102346;-82
2021/07/11 01:10:06;;;;;;;6.97;6.13;;;16.60;99.90;;;16.65;100.00;100477.44;3476361;40;100169;-82
2021/07/11 01:12:43;;;;;;;6.65;5.47;;;16.50;99.90;;;16.45;100.00;100481.75;3481880;40;101086;-82
2021/07/11 01:15:12;;;;;;;6.20;5.30;;;17.30;99.90;;;16.45;100.00;100490.69;3479860;40;102692;-85
2021/07/11 01:17:42;;;;;;;7.63;6.47;;;16.50;99.90;;;16.46;100.00;100480.72;3485543;39;102863;-83
2021/07/11 01:20:36;;;;;;;7.22;6.35;;;16.40;99.90;;;16.50;100.00;100487.44;3487703;40;100518;-85
2021/07/11 01:23:08;;;;;;;8.77;6.75;;;16.40;99.90;;;16.39;100.00;100485.22;3483993;39;103863;-82
2021/07/11 01:25:43;;;;;;;9.13;6.40;;;16.30;99.90;;;16.40;100.00;100485.03;3487730;39;103181;-82
2021/07/11 01:28:16;;;;;;;8.15;6.68;;;16.30;99.90;;;16.40;100.00;100495.00;3481784;40;100309;-86
2021/07/11 01:30:50;;;;;;;7.45;6.00;;;16.20;99.90;;;16.45;100.00;100501.50;3515675;39;100322;-86
2021/07/11 01:33:21;;;;;;;8.05;6.57;;;16.20;99.90;;;16.34;100.00;100499.28;3472851;40;102092;-86
2021/07/11 01:35:50;;;;;;;10.82;6.15;;;16.20;99.90;;;16.34;100.00;100498.47;3470739;40;102697;-85
2021/07/11 01:38:22;;;;;;;7.45;6.72;;;16.40;99.90;;;16.37;100.00;100498.91;3481774;39;102226;-82
2021/07/11 01:40:52;;;;;;;9.80;6.63;;;16.10;99.90;;;16.45;100.00;100496.09;3476500;40;101150;-82
2021/07/11 01:43:23;;;;;;;8.77;6.97;;;16.10;99.90;;;16.49;100.00;100504.66;3524059;22;102912;-84
2021/07/11 01:45:55;;;;;;;11.45;6.78;;;16.10;99.90;;;16.49;100.00;100497.41;3551842;39;101592;-83
2021/07/11 01:48:23;;;;;;;10.63;6.32;;;17.20;99.90;;;16.35;100.00;100503.66;3572122;22;104595;-82
2021/07/11 01:50:51;;;;;;;5.95;5.32;;;16.10;99.90;;;16.42;100.00;100501.06;3531401;39;100290;-85
2021/07/11 01:53:24;;;;;;;9.00;6.40;;;16.10;99.90;;;16.46;100.00;100494.22;3519126;39;103117;-85
2021/07/11 01:55:55;;;;;;;8.18;6.75;;;16.30;99.90;;;16.51;100.00;100503.44;3523532;39;102860;-82
2021/07/11 01:58:23;;;;;;;10.27;6.38;;;16.10;99.90;;;16.55;100.00;100503.91;3542732;22;102203;-86
2021/07/11 02:00:54;;;;;;;9.00;6.03;;;16.10;99.90;;;16.63;100.00;100502.97;3491292;39;100034;-82
2021/07/11 02:03:25;;;;;;;7.25;6.18;;;16.10;99.90;;;16.60;100.00;100503.31;3492440;39;101695;-89
2021/07/11 02:06:06;;;;;;;7.50;6.40;;;16.90;99.90;;;16.52;100.00;100497.03;3496548;39;101797;-82
2021/07/11 02:08:38;;;;;;;11.82;6.90;;;16.10;99.90;;;16.55;100.00;100498.50;3490883;39;101310;-85
2021/07/11 02:11:09;;;;;;;6.75;5.40;;;16.10;99.90;;;16.53;100.00;100497.84;3495055;40;100022;-82
2021/07/11 02:13:51;;;;;;;8.20;6.03;;;16.10;99.90;;;16.52;100.00;100496.19;3523025;22;101961;-83
2021/07/11 02:16:26;;;;;;;7.47;5.80;;;16.10;99.90;;;16.49;100.00;100491.16;3476560;39;103531;-82
2021/07/11 02:18:59;;;;;;;6.88;5.25;;;16.10;99.90;;;16.48;100.00;100489.47;3452695;40;102898;-86
2021/07/11 02:21:32;;;;;;;6.28;5.07;;;16.10;99.90;;;16.43;100.00;100495.47;3472839;39;100001;-83
2021/07/11 02:24:06;;;;;;;8.27;5.68;;;16.10;99.90;;;16.43;100.00;100497.34;3458596;40;103461;-82
2021/07/11 02:26:40;;;;;;;7.07;5.57;;;16.10;99.90;;;16.40;100.00;100493.16;3505760;39;103637;-86
2021/07/11 02:29:10;;;;;;;5.70;5.07;;;16.10;99.90;;;16.43;100.00;100489.22;3504964;22;101521;-84
2021/07/11 02:31:42;;;;;;;8.45;4.95;;;16.00;99.90;;;16.40;100.00;100495.00;3543251;22;100780;-82
2021/07/11 02:34:11;;;;;;;8.50;6.30;;;16.10;99.90;;;16.49;100.00;100501.97;3528469;22;103398;-86
2021/07/11 02:36:46;;;;;;;9.07;5.85;;;16.00;99.90;;;16.53;100.00;100497.84;3524178;23;102777;-85
2021/07/11 02:39:17;;;;;;;7.85;6.00;;;16.10;99.90;;;16.51;100.00;100489.94;3517304;22;101584;-82
2021/07/11 02:41:54;;;;;;;6.45;5.85;;;15.70;99.90;;;16.57;100.00;100498.31;3613452;22;105756;-82
2021/07/11 02:44:24;;;;;;;8.20;4.78;;;16.10;99.90;;;16.47;100.00;100495.91;3574260;22;102860;-82
2021/07/11 02:46:58;;;;;;;6.78;6.10;;;16.00;99.90;;;16.51;100.00;100486.41;3567316;22;103310;-82
2021/07/11 02:49:30;;;;;;;7.40;5.90;;;16.40;99.90;;;16.36;100.00;100491.84;3509268;39;102312;-82
2021/07/11 02:52:08;;;;;;;7.90;5.97;;;16.70;99.90;;;16.29;100.00;100490.94;3517859;22;101737;-82
2021/07/11 02:55:18;;;;;;;7.03;6.10;;;16.00;99.90;;;16.33;100.00;100491.38;3609449;22;105134;-86
2021/07/11 02:58:05;;;;;;;7.05;6.38;;;16.00;99.90;;;16.16;100.00;100499.72;3583075;22;105718;-82
2021/07/11 03:00:41;;;;;;;8.27;5.82;;;15.90;99.90;;;16.17;100.00;100501.41;3537922;39;100813;-82
2021/07/11 03:03:15;;;;;;;7.10;5.95;;;15.90;99.90;;;16.24;100.00;100497.94;3539069;39;100166;-82
2021/07/11 03:05:51;;;;;;;6.40;5.80;;;15.90;99.90;;;16.17;100.00;100500.56;3540216;39;102513;-86
2021/07/11 03:08:18;;;;;;;7.32;6.07;;;15.90;99.90;;;16.08;100.00;100493.56;3546672;39;101372;-83
2021/07/11 03:10:49;;;;;;;10.45;6.85;;;15.80;99.90;;;15.99;100.00;100500.94;3539377;39;101812;-84
2021/07/11 03:13:19;;;;;;;6.50;5.90;;;15.80;99.90;;;15.99;100.00;100503.66;3551366;39;100636;-83
2021/07/11 03:15:48;;;;;;;8.95;6.40;;;15.80;99.90;;;15.90;100.00;100506.66;3520170;39;103333;-82
2021/07/11 03:18:21;;;;;;;9.13;6.82;;;15.70;99.90;;;15.78;100.00;100506.28;3562379;22;103327;-86
2021/07/11 03:21:26;;;;;;;5.90;5.35;;;15.80;99.90;;;15.83;100.00;100511.94;3533293;22;100591;-82
2021/07/11 03:24:41;;;;;;;7.20;5.93;;;15.70;99.90;;;15.82;100.00;100513.78;3490670;40;100622;-82
2021/07/11 03:27:57;;;;;;;7.30;6.00;;;15.60;99.90;;;15.88;100.00;100514.94;3514611;22;104561;-85
2021/07/11 03:31:14;;;;;;;8.38;6.68;;;15.60;99.90;;;15.91;100.00;100517.25;3549536;22;105685;-86
2021/07/11 03:33:55;;;;;;;8.00;6.95;;;15.60;99.90;;;15.97;100.00;100513.78;3547788;22;105898;-85
2021/07/11 03:36:25;;;;;;;8.75;6.50;;;15.60;99.90;;;16.08;100.00;100518.72;3607162;22;105365;-84
2021/07/11 03:38:59;;;;;;;7.03;6.10;;;15.60;99.90;;;16.14;100.00;100509.03;3523674;22;104553;-85
2021/07/11 03:41:32;;;;;;;11.38;7.25;;;15.60;99.90;;;16.23;100.00;100507.06;3513977;40;102131;-85
2021/07/11 03:44:05;;;;;;;9.18;6.25;;;15.60;99.90;;;16.46;100.00;100518.53;3499740;40;102343;-85
2021/07/11 03:49:49;;;;;;;9.18;6.53;;;16.60;99.90;;;16.83;100.00;100507.53;3528096;22;103023;-85
2021/07/11 03:53:09;;;;;;;7.15;6.45;;;15.80;99.90;;;16.84;100.00;100492.16;3538249;23;103802;-85
2021/07/11 03:56:22;;;;;;;7.82;6.20;;;16.70;99.90;;;16.82;100.00;100478.84;3558768;22;100720;-86
2021/07/11 03:59:36;;;;;;;7.15;6.43;;;15.90;99.90;;;16.94;100.00;100473.75;3505215;39;100089;-82
2021/07/11 04:02:51;;;;;;;6.25;5.25;;;16.00;99.90;;;16.99;100.00;100465.06;3504577;39;101123;-84
2021/07/11 04:06:05;;;;;;;8.05;5.65;;;16.10;99.90;;;16.96;100.00;100466.28;3589101;23;102288;-82
2021/07/11 04:09:21;;;;;;;6.85;5.60;;;16.10;99.90;;;17.00;100.00;100456.75;3528515;39;99795;-83
2021/07/11 04:12:33;;;;;;;7.15;5.70;;;16.20;99.90;;;17.04;100.00;100462.63;3521963;39;99851;-85
2021/07/11 04:15:46;;;;;;;7.45;5.18;;;16.40;99.90;;;17.06;100.00;100466.78;3563993;22;104923;-83
2021/07/11 04:19:03;;;;;;;8.05;5.85;;;16.40;99.90;;;17.18;100.00;100470.59;3530394;39;101317;-83
2021/07/11 04:22:20;;;;;;;9.13;5.65;;;16.50;99.90;;;17.31;100.00;100461.75;3537213;39;100662;-82
2021/07/11 04:25:34;;;;;;;6.82;5.35;;;16.50;99.90;;;17.29;100.00;100463.00;3529629;39;100109;-82
2021/07/11 04:28:49;;;;;;;8.27;5.97;;;16.70;99.90;;;17.68;100.00;100462.47;3536325;39;100935;-85
2021/07/11 04:32:02;;;;;;;5.57;5.05;;;16.70;99.90;;;17.56;100.00;100456.72;3531762;39;101103;-84
2021/07/11 04:35:14;;;;;;;8.23;5.35;;;16.80;99.90;;;17.65;100.00;100452.03;3532968;39;102965;-83
2021/07/11 04:38:28;;;;;;;5.07;4.57;;;17.00;99.90;;;17.87;100.00;100451.72;3532834;39;100216;-86
2021/07/11 04:41:41;;;;;;;5.53;4.75;;;17.10;99.90;;;17.74;100.00;100450.81;3533639;39;101094;-82
2021/07/11 04:45:04;;;;;;;5.13;4.63;;;17.10;99.90;;;17.56;100.00;100451.31;3522905;39;101241;-84
2021/07/11 04:48:16;;;;;;;4.53;4.13;;;17.40;99.90;;;17.74;100.00;100448.13;3535723;39;101158;-83
2021/07/11 04:51:28;;;;;;;6.63;4.90;;;18.50;99.90;;;17.75;100.00;100447.06;3565376;22;101416;-84
2021/07/11 04:54:42;;;;;;;4.85;4.25;;;17.50;99.90;;;18.08;100.00;100439.91;3514368;22;101193;-83
2021/07/11 04:57:54;;;;;;;5.30;4.38;;;17.50;99.90;;;18.37;100.00;100433.34;3475218;39;103691;-82
2021/07/11 05:01:06;;;;;;;6.28;3.90;;;17.60;99.90;;;18.44;100.00;100430.63;3524376;22;104835;-82
2021/07/11 05:04:17;;;;;;;5.25;3.83;;;17.80;99.90;;;18.58;100.00;100432.34;3543124;22;100141;-82
2021/07/11 05:07:29;;;;;;;5.72;4.00;;;18.40;99.90;;;18.64;100.00;100426.97;3508457;39;101465;-82
2021/07/11 05:10:43;;;;;;;11.70;4.20;;;18.00;99.90;;;18.58;100.00;100418.81;3537931;39;103303;-84
2021/07/11 05:13:54;;;;;;;5.25;4.05;;;18.20;99.90;;;18.83;100.00;100408.19;3542042;39;101389;-84
2021/07/11 05:17:06;;;;;;;5.00;4.03;;;18.60;99.90;;;18.63;100.00;100411.75;3503673;40;100784;-83
2021/07/11 05:20:18;;;;;;;4.93;3.67;;;18.40;99.90;;;18.61;100.00;100400.28;3529712;22;103061;-84
2021/07/11 05:23:30;;;;;;;5.60;4.18;;;18.50;99.90;;;18.67;100.00;100406.72;3476548;39;101119;-85
2021/07/11 05:26:44;;;;;;;7.05;3.75;;;18.50;99.90;;;18.93;100.00;100408.59;3500019;40;102298;-84
2021/07/11 05:29:56;;;;;;;5.30;3.25;;;18.60;99.90;;;19.27;100.00;100397.50;3458896;40;100209;-85
2021/07/11 05:33:08;;;;;;;8.48;3.83;;;18.70;99.90;;;19.96;100.00;100398.75;3520364;40;103434;-85
2021/07/11 05:36:20;;;;;;;4.75;3.55;;;18.90;99.90;;;20.09;100.00;100394.09;3491539;39;103180;-81
2021/07/11 05:39:32;;;;;;;3.28;3.00;;;19.20;99.90;;;20.12;100.00;100394.69;3463778;40;100467;-87
2021/07/11 05:42:45;;;;;;;3.85;2.95;;;19.30;99.90;;;20.16;100.00;100388.59;3480869;40;100216;-86
2021/07/11 05:45:56;;;;;;;5.75;3.28;;;19.60;99.90;;;19.99;100.00;100395.59;3470725;39;101067;-82
2021/07/11 05:49:08;;;;;;;2.88;2.67;;;19.80;99.90;;;20.37;100.00;100392.91;3463628;39;101214;-82
2021/07/11 05:52:20;;;;;;;4.13;3.20;;;20.00;99.90;;;20.39;100.00;100390.81;3499390;22;100765;-86
2021/07/11 05:55:33;;;;;;;3.95;2.95;;;21.00;99.90;;;19.99;100.00;100388.28;3495547;39;100161;-84
2021/07/11 05:58:10;;;;;;;4.35;3.20;;;20.30;99.90;;;20.25;100.00;100387.31;3570867;22;105874;-83
2021/07/11 06:00:38;;;;;;;4.03;3.08;;;20.50;99.90;;;20.77;100.00;100388.00;3539674;22;100807;-85
2021/07/11 06:03:05;;;;;;;2.92;2.58;;;20.50;99.90;;;20.64;100.00;100383.50;3518791;39;100353;-82
2021/07/11 06:05:32;;;;;;;2.95;2.65;;;20.70;99.90;;;20.63;100.00;100386.44;3492583;39;100275;-82
2021/07/11 06:07:59;;;;;;;2.92;2.45;;;21.30;99.90;;;20.68;100.00;100381.16;3488441;40;100819;-83
2021/07/11 06:10:26;;;;;;;3.38;2.47;;;20.90;99.90;;;20.81;100.00;100383.78;3492151;40;101021;-83
2021/07/11 06:12:53;;;;;;;4.38;2.92;;;21.00;99.90;;;21.09;100.00;100377.88;3490303;40;100476;-84
2021/07/11 06:15:22;;;;;;;3.00;2.70;;;21.20;99.90;;;20.73;100.00;100381.34;3486539;39;100120;-85
2021/07/11 06:17:49;;;;;;;3.10;2.80;;;21.30;99.90;;;20.98;100.00;100379.44;3482022;40;102861;-82
2021/07/11 06:20:16;;;;;;;3.75;2.78;;;22.30;99.90;;;21.27;100.00;100379.78;3481609;40;101898;-84
2021/07/11 06:22:43;;;;;;;2.58;1.88;;;21.50;99.90;;;22.03;100.00;100371.97;3519463;39;101688;-83
2021/07/11 06:25:11;;;;;;;3.33;2.15;;;21.70;99.90;;;22.28;100.00;100369.09;3488762;39;101275;-83
2021/07/11 06:27:41;;;;;;;2.90;2.15;;;21.90;99.90;;;21.79;100.00;100360.13;3487540;40;101159;-85
2021/07/11 06:30:12;;;;;;;3.85;2.55;;;22.10;99.90;;;21.44;100.00;100372.69;3522987;39;102861;-85
2021/07/11 06:32:42;;;;;;;2.45;1.98;;;22.40;99.90;;;22.26;100.00;100357.59;3485635;40;100833;-86
2021/07/11 06:35:14;;;;;;;2.03;1.83;;;22.50;99.90;;;22.97;100.00;100348.50;3486713;40;99970;-87
2021/07/11 06:37:42;;;;;;;2.10;1.95;;;22.70;99.90;;;23.01;100.00;100341.47;3477264;40;102835;-83
2021/07/11 06:40:11;;;;;;;2.58;2.10;;;23.10;99.90;;;22.54;100.00;100346.03;3485019;40;101410;-84
2021/07/11 06:42:38;;;;;;;3.90;1.70;;;23.20;99.90;;;23.08;100.00;100344.09;3508963;39;102106;-83
2021/07/11 06:45:08;;;;;;;2.13;1.40;;;24.20;99.90;;;22.58;100.00;100345.34;3557024;22;100480;-85
2021/07/11 06:47:37;;;;;;;2.42;2.10;;;23.60;99.90;;;23.36;100.00;100341.44;3542700;39;100685;-84
2021/07/11 06:50:09;;;;;;;1.67;1.58;;;24.70;99.90;;;23.10;100.00;100341.97;3542154;39;101403;-81
2021/07/11 06:52:36;;;;;;;2.63;2.33;;;24.00;99.90;;;23.17;100.00;100337.19;3533381;39;102501;-82
2021/07/11 06:55:04;;;;;;;2.25;2.05;;;24.30;99.80;;;23.64;100.00;100341.50;3540588;39;100135;-82
2021/07/11 06:57:32;;;;;;;2.20;1.52;;;24.50;99.50;;;23.04;100.00;100346.44;3541385;39;101289;-81
2021/07/11 07:00:00;;;;;;;2.25;1.55;;;24.70;95.60;;;24.05;100.00;100338.75;3541217;39;101498;-84
2021/07/11 07:02:27;;;;;;;1.90;1.75;;;25.00;96.30;;;23.98;100.00;100347.09;3540009;39;100469;-84
2021/07/11 07:04:54;;;;;;;1.67;1.40;;;25.20;95.70;;;24.01;100.00;100338.38;3541903;39;100533;-82
2021/07/11 07:07:23;;;;;;;1.73;1.50;;;26.00;95.00;;;24.51;100.00;100332.19;3539088;39;101048;-83
2021/07/11 07:09:50;;;;;;;1.55;1.40;;;25.30;94.30;;;24.02;100.00;100337.31;3541828;39;101369;-84
2021/07/11 07:12:17;;;;;;;1.17;1.05;;;25.60;91.80;;;23.60;100.00;100334.06;3541203;39;102369;-81
2021/07/11 07:14:44;;;;;;;2.13;1.83;;;25.60;87.50;;;23.77;100.00;100336.84;3540548;39;102119;-85
2021/07/11 07:17:11;;;;;;;1.40;1.10;;;26.10;87.10;;;24.47;100.00;100333.78;3537784;39;101164;-84
2021/07/11 07:19:39;;;;;;;2.55;1.25;;;25.90;86.60;;;23.48;100.00;100342.25;3539789;39;101174;-85
2021/07/11 07:22:06;;;;;;;1.20;1.10;;;26.10;79.10;;;23.51;100.00;100344.50;3541617;39;100380;-85
2021/07/11 07:24:34;;;;;;;1.95;1.15;;;26.10;79.00;;;23.63;100.00;100342.56;3535088;39;100187;-85
2021/07/11 07:27:01;;;;;;;0.73;0.73;;;25.90;77.70;;;23.74;100.00;100343.59;3540870;39;100849;-83
2021/07/11 07:29:28;;;;;;;0.93;0.90;;;25.80;74.50;;;23.74;100.00;100345.53;3538831;39;103159;-82
2021/07/11 07:31:55;;;;;;;0.60;0.60;;;25.80;72.50;;;24.18;100.00;100347.47;3547306;39;100532;-83
2021/07/11 07:34:22;;;;;;;1.65;1.05;;;25.70;73.10;;;24.27;100.00;100351.47;3533330;39;100223;-84
2021/07/11 07:36:49;;;;;;;1.73;1.23;;;25.80;72.20;;;24.44;100.00;100350.69;3541829;39;100918;-85
2021/07/11 07:39:17;;;;;;;1.73;0.85;;;26.30;71.90;;;24.36;100.00;100346.44;3537685;39;100996;-84
2021/07/11 07:41:45;;;;;;;0.90;0.90;;;26.20;71.90;;;24.38;100.00;100349.75;3540125;39;100283;-83
2021/07/11 07:44:12;;;;;;;0.80;0.80;;;26.10;69.50;;;24.46;100.00;100351.28;3543327;39;100254;-84
2021/07/11 07:46:39;;;;;;;1.27;1.17;;;26.30;68.90;;;25.19;100.00;100347.50;3541332;39;100987;-83
2021/07/11 07:49:06;;;;;;;1.20;1.10;;;26.40;70.20;;;25.17;100.00;100345.00;3539131;39;100666;-84
2021/07/11 07:51:33;;;;;;;3.08;1.15;;;27.50;70.90;;;25.46;100.00;100345.69;3540104;39;100643;-83
2021/07/11 07:54:00;;;;;;;1.20;1.10;;;26.30;69.70;;;24.68;100.00;100339.34;3541171;39;100916;-85
2021/07/11 07:56:27;;;;;;;0.60;0.60;;;27.10;66.10;;;25.99;100.00;100336.72;3538994;39;101385;-84
2021/07/11 07:58:56;;;;;;;1.17;0.80;;;27.20;67.90;;;25.56;100.00;100347.72;3531946;39;103444;-84
2021/07/11 08:01:23;;;;;;;1.02;0.68;;;28.10;66.90;;;25.03;100.00;100344.53;3543217;39;100666;-82
2021/07/11 08:03:50;;;;;;;0.80;0.70;;;27.60;59.70;;;24.82;100.00;100342.56;3541318;39;100324;-85
2021/07/11 08:06:17;;;;;;;1.00;0.60;;;27.70;58.70;;;24.87;100.00;100348.09;3538780;39;101236;-84
2021/07/11 08:08:44;;;;;;;0.93;0.82;;;27.50;57.80;;;25.56;100.00;100340.34;3531137;39;103273;-84
2021/07/11 08:11:11;;;;;;;0.60;0.40;;;27.30;58.90;;;24.62;100.00;100337.56;3540861;39;100724;-83
2021/07/11 08:13:39;;;;;;;1.67;0.60;;;28.30;57.80;;;25.31;100.00;100343.56;3538660;39;100641;-83
2021/07/11 08:16:08;;;;;;;0.70;0.70;;;27.30;58.00;;;25.20;100.00;100343.69;3539925;39;101306;-87
2021/07/11 08:18:35;;;;;;;1.65;0.88;;;27.40;58.00;;;25.11;100.00;100343.28;3535145;39;102839;-83
2021/07/11 08:21:02;;;;;;;1.05;0.70;;;27.40;57.00;;;25.57;100.00;100338.41;3557521;39;102157;-83
2021/07/11 08:23:29;;;;;;;0.95;0.85;;;27.40;56.10;;;25.37;100.00;100341.72;3549114;39;100273;-83
2021/07/11 08:25:56;;;;;;;0.95;0.77;;;27.50;55.60;;;25.52;100.00;100347.41;3540154;39;103564;-82
2021/07/11 08:28:23;;;;;;;0.75;0.75;;;27.50;55.20;;;25.00;100.00;100350.50;3542467;39;102763;-81
2021/07/11 08:30:50;;;;;;;0.70;0.70;;;28.40;55.00;;;25.57;100.00;100344.72;3535155;39;102488;-82
2021/07/11 08:33:19;;;;;;;0.90;0.90;;;27.60;55.60;;;25.81;100.00;100345.31;3536517;39;100165;-83
2021/07/11 08:35:48;;;;;;;0.95;0.68;;;27.60;55.80;;;25.51;100.00;100342.16;3539281;39;103069;-82
2021/07/11 08:38:15;;;;;;;1.27;0.63;;;28.20;55.00;;;26.42;100.00;100341.31;3538899;39;101329;-84
2021/07/11 08:40:42;;;;;;;0.77;0.52;;;27.80;55.30;;;26.18;100.00;100350.09;3535209;39;100154;-84
2021/07/11 08:43:09;;;;;;;2.05;0.70;;;28.00;54.80;;;25.74;100.00;100353.72;3541883;39;100312;-81
2021/07/11 08:45:36;;;;;;;0.50;0.50;;;28.20;53.00;;;25.46;100.00;100353.06;3540379;39;101404;-83
2021/07/11 08:48:04;;;;;;;1.05;0.95;;;28.20;51.90;;;25.76;100.00;100346.06;3535979;39;103032;-84
2021/07/11 08:50:35;;;;;;;0.90;0.82;;;28.30;51.70;;;25.89;100.00;100350.34;3539686;39;102080;-83
2021/07/11 08:53:03;;;;;;;0.47;0.47;;;28.50;51.70;;;26.48;100.00;100345.72;3536649;39;100522;-84
2021/07/11 08:55:31;;;;;;;3.92;0.95;;;29.00;52.90;;;25.87;100.00;100338.78;3537675;39;103136;-80
2021/07/11 08:58:00;;;;;;;0.60;0.60;;;28.50;51.70;;;26.37;100.00;100343.16;3537912;39;101494;-83
2021/07/11 09:00:30;;;;;;;0.70;0.70;;;28.10;51.80;;;26.71;100.00;100338.22;3535714;39;100936;-82
2021/07/11 09:02:57;;;;;;;0.60;0.60;;;29.20;52.40;;;26.46;100.00;100344.34;3539876;39;100311;-86
2021/07/11 09:05:28;;;;;;;1.55;0.80;;;29.00;51.00;;;26.28;100.00;100350.22;3548983;39;103201;-81
2021/07/11 09:08:05;;;;;;;0.88;0.88;;;29.10;50.30;;;25.61;100.00;100334.94;3538612;39;103164;-83
2021/07/11 09:10:36;;;;;;;0.85;0.75;;;29.20;48.50;;;25.93;100.00;100353.41;3542567;39;100675;-82
2021/07/11 09:13:11;;;;;;;1.75;0.95;;;29.10;49.50;;;26.31;100.00;100350.53;3535817;39;100179;-84
2021/07/11 09:15:44;;;;;;;0.68;0.60;;;28.90;49.90;;;26.53;100.00;100350.44;3537498;39;101461;-82
2021/07/11 09:18:12;;;;;;;0.70;0.70;;;28.20;49.60;;;26.41;100.00;100355.28;3536691;39;101322;-82
2021/07/11 09:20:58;;;;;;;0.73;0.73;;;29.00;50.00;;;26.39;100.00;100352.78;3538769;39;100417;-81
2021/07/11 09:23:28;;;;;;;1.30;0.60;;;29.10;49.40;;;26.30;100.00;100348.88;3536846;39;100082;-82
2021/07/11 09:26:01;;;;;;;0.88;0.77;;;29.10;48.90;;;26.21;100.00;100355.06;3535290;39;101547;-83
2021/07/11 09:28:29;;;;;;;0.55;0.55;;;29.10;48.40;;;26.60;100.00;100353.78;3537745;39;101934;-81
2021/07/11 09:31:07;;;;;;;0.65;0.65;;;29.10;48.00;;;25.85;100.00;100354.66;3547680;39;102595;-83
2021/07/11 09:33:36;;;;;;;0.50;0.50;;;29.50;47.60;;;25.65;100.00;100357.19;3538039;39;100352;-81
2021/07/11 09:36:15;;;;;;;0.68;0.68;;;28.90;47.40;;;25.82;100.00;100346.97;3538509;39;104153;-82
2021/07/11 09:38:48;;;;;;;1.13;0.50;;;28.90;48.20;;;25.84;100.00;100342.03;3538860;39;102271;-81
2021/07/11 09:41:23;;;;;;;1.48;1.00;;;28.70;48.80;;;25.83;100.00;100340.41;3542837;39;100441;-82
2021/07/11 09:43:51;;;;;;;0.70;0.70;;;28.90;49.50;;;26.04;100.00;100344.19;3543056;39;100322;-82
2021/07/11 09:46:20;;;;;;;1.25;1.02;;;28.30;49.30;;;26.12;100.00;100349.19;3540204;39;100744;-81
2021/07/11 09:48:49;;;;;;;0.50;0.47;;;28.10;49.20;;;26.79;100.00;100344.06;3536694;39;101118;-82
2021/07/11 09:51:19;;;;;;;0.60;0.57;;;28.50;49.80;;;27.88;100.00;100336.97;3536717;39;100872;-83
2021/07/11 09:53:49;;;;;;;0.98;0.68;;;28.80;50.60;;;27.80;100.00;100326.53;3554218;39;100952;-82
2021/07/11 09:56:35;;;;;;;1.00;0.63;;;29.20;51.30;;;26.60;100.00;100334.56;3538913;39;103151;-82
2021/07/11 09:59:05;;;;;;;2.17;0.68;;;29.50;48.80;;;26.47;100.00;100337.75;3541712;39;100948;-81
2021/07/11 10:01:35;;;;;;;1.35;0.93;;;29.70;47.90;;;26.53;100.00;100341.38;3535721;39;100562;-83
2021/07/11 10:04:04;;;;;;;0.55;0.52;;;29.70;48.30;;;26.82;100.00;100334.50;3546548;39;100283;-83
2021/07/11 10:06:33;;;;;;;1.90;0.80;;;29.70;48.20;;;27.35;100.00;100338.94;3531194;39;103046;-84
2021/07/11 10:09:06;;;;;;;0.60;0.60;;;30.50;49.10;;;26.58;100.00;100335.94;3543938;39;103174;-83
2021/07/11 10:11:33;;;;;;;0.95;0.80;;;30.60;47.30;;;26.49;100.00;100335.59;3542101;39;102749;-84
2021/07/11 10:14:00;;;;;;;0.75;0.70;;;29.80;47.00;;;27.24;100.00;100341.91;3537527;39;100058;-82
2021/07/11 10:16:30;;;;;;;1.30;0.63;;;29.90;46.90;;;26.72;100.00;100340.72;3545056;39;101205;-86
2021/07/11 10:19:01;;;;;;;1.23;0.70;;;30.50;46.00;;;27.14;100.00;100335.25;3539812;39;101552;-85
2021/07/11 10:21:31;;;;;;;0.73;0.68;;;30.70;46.20;;;26.80;100.00;100347.66;3544785;39;100501;-82
2021/07/11 10:23:59;;;;;;;0.73;0.73;;;30.40;45.70;;;27.47;100.00;100341.47;3538166;39;100126;-81
2021/07/11 10:26:38;;;;;;;1.13;0.73;;;30.90;46.40;;;26.59;100.00;100352.13;3537875;39;103410;-84
2021/07/11 10:29:13;;;;;;;1.08;0.60;;;30.20;43.50;;;26.89;100.00;100346.06;3534465;39;101441;-82
2021/07/11 10:31:47;;;;;;;0.77;0.60;;;30.40;44.50;;;26.82;100.00;100354.53;3537022;39;100377;-83
2021/07/11 10:34:26;;;;;;;0.82;0.82;;;30.80;45.20;;;26.73;100.00;100349.78;3542958;39;100489;-85
2021/07/11 10:36:53;;;;;;;0.75;0.70;;;30.70;45.40;;;27.32;100.00;100347.75;3546145;39;100929;-81
2021/07/11 10:39:21;;;;;;;0.88;0.70;;;30.20;45.30;;;28.03;100.00;100345.28;3557518;39;100319;-83
2021/07/11 10:41:53;;;;;;;0.93;0.60;;;30.40;45.80;;;27.77;100.00;100343.53;3546383;39;100112;-81
2021/07/11 10:44:23;;;;;;;0.80;0.60;;;30.40;45.50;;;28.03;100.00;100345.28;3530081;39;100444;-82
2021/07/11 10:46:56;;;;;;;0.95;0.80;;;31.10;45.60;;;26.88;100.00;100338.09;3529676;39;100745;-84